createdAt,value
2022-12-25T00:00:36.006Z,13.43
2022-12-25T00:03:03.098Z,65.90
2022-12-25T00:05:30.085Z,22.50
2022-12-25T00:07:57.033Z,19.27
2022-12-25T00:10:24.486Z,24.95
2022-12-25T00:12:51.832Z,12.15
2022-12-25T00:15:18.707Z,12.10
2022-12-25T00:17:45.782Z,11.20
2022-12-25T00:20:12.694Z,13.25
2022-12-25T00:22:39.633Z,15.85
2022-12-25T00:25:07.052Z,14.77
2022-12-25T00:27:34.690Z,16.42
2022-12-25T00:30:01.778Z,15.25
2022-12-25T00:32:28.712Z,19.13
2022-12-25T00:34:55.651Z,12.35
2022-12-25T00:37:22.615Z,51.28
2022-12-25T00:39:49.926Z,46.63
2022-12-25T00:42:19.432Z,26.00
2022-12-25T00:44:47.318Z,16.77
2022-12-25T00:47:15.299Z,16.92
2022-12-25T00:49:42.420Z,25.67
2022-12-25T00:52:09.713Z,23.90
2022-12-25T00:54:37.202Z,25.83
2022-12-25T00:57:04.427Z,31.17
2022-12-25T00:59:32.712Z,26.87
2022-12-25T01:02:18.754Z,43.13
2022-12-25T01:04:45.799Z,37.22
2022-12-25T01:07:12.838Z,33.15
2022-12-25T01:09:58.235Z,26.55
2022-12-25T01:12:25.242Z,25.25
2022-12-25T01:14:52.084Z,20.83
2022-12-25T01:17:18.969Z,23.13
2022-12-25T01:19:45.855Z,20.77
2022-12-25T01:22:12.727Z,27.98
2022-12-25T01:24:39.897Z,12.82
2022-12-25T01:27:06.750Z,16.83
2022-12-25T01:29:33.644Z,17.48
2022-12-25T01:32:00.744Z,18.60
2022-12-25T01:34:27.677Z,26.60
2022-12-25T01:36:57.564Z,21.77
2022-12-25T01:39:24.444Z,22.98
2022-12-25T01:41:51.337Z,26.75
2022-12-25T01:44:36.599Z,32.53
2022-12-25T01:47:04.667Z,33.92
2022-12-25T01:52:06.093Z,24.70
2022-12-25T01:54:41.187Z,27.55
2022-12-25T01:57:14.619Z,24.30
2022-12-25T01:59:41.898Z,17.23
2022-12-25T02:02:09.176Z,11.93
2022-12-25T02:04:43.013Z,14.07
2022-12-25T02:07:19.920Z,15.65
2022-12-25T02:09:46.922Z,18.67
2022-12-25T02:12:32.839Z,25.13
2022-12-25T02:15:05.945Z,26.13
2022-12-25T02:17:45.976Z,35.00
2022-12-25T02:20:27.948Z,34.00
2022-12-25T02:23:33.753Z,36.22
2022-12-25T02:26:22.606Z,44.10
2022-12-25T02:29:07.906Z,41.30
2022-12-25T02:31:59.593Z,41.72
2022-12-25T02:34:41.440Z,36.83
2022-12-25T02:37:27.145Z,44.85
2022-12-25T02:40:19.689Z,37.75
2022-12-25T02:43:16.840Z,43.95
2022-12-25T02:46:16.513Z,49.22
2022-12-25T02:49:23.413Z,44.80
2022-12-25T02:52:17.398Z,44.55
2022-12-25T02:55:07.733Z,39.85
2022-12-25T02:57:58.205Z,44.42
2022-12-25T03:00:44.658Z,36.10
2022-12-25T03:03:32.066Z,36.63
2022-12-25T03:06:21.630Z,40.80
2022-12-25T03:08:53.595Z,37.42
2022-12-25T03:11:32.571Z,47.42
2022-12-25T03:14:24.835Z,46.78
2022-12-25T03:16:56.439Z,50.22
2022-12-25T03:20:06.326Z,42.60
2022-12-25T03:22:52.242Z,51.50
2022-12-25T03:25:38.296Z,44.78
2022-12-25T03:28:06.200Z,61.25
2022-12-25T03:31:13.849Z,44.90
2022-12-25T03:34:06.563Z,44.38
2022-12-25T03:37:24.143Z,52.08
2022-12-25T03:40:26.499Z,75.13
2022-12-25T03:43:28.663Z,81.20
2022-12-25T03:46:17.792Z,25.45
2022-12-25T03:49:08.779Z,32.53
2022-12-25T03:51:56.732Z,29.02
2022-12-25T03:54:46.497Z,32.47
2022-12-25T03:57:33.029Z,42.00
2022-12-25T04:00:18.571Z,40.65
2022-12-25T04:03:04.028Z,35.33
2022-12-25T04:05:49.479Z,38.10
2022-12-25T04:08:34.938Z,29.20
2022-12-25T04:11:20.575Z,36.15
2022-12-25T04:14:05.899Z,29.83
2022-12-25T04:16:51.565Z,35.30
2022-12-25T04:19:37.202Z,48.97
2022-12-25T04:22:22.517Z,43.60
2022-12-25T04:25:07.860Z,33.25
2022-12-25T04:27:53.206Z,34.38
2022-12-25T04:30:38.954Z,33.55
2022-12-25T04:33:24.276Z,45.88
2022-12-25T04:36:11.237Z,41.25
2022-12-25T04:38:40.248Z,47.00
2022-12-25T04:41:09.493Z,91.10
2022-12-25T04:43:36.768Z,29.83
2022-12-25T04:46:05.327Z,29.98
2022-12-25T04:48:34.966Z,34.60
2022-12-25T04:51:16.687Z,23.65
2022-12-25T04:53:44.292Z,27.83
2022-12-25T04:56:11.290Z,27.55
2022-12-25T04:58:38.693Z,26.98
2022-12-25T05:01:05.669Z,32.47
2022-12-25T05:03:33.530Z,35.38
2022-12-25T05:06:01.659Z,34.65
2022-12-25T05:08:30.439Z,31.77
2022-12-25T05:10:58.524Z,36.05
2022-12-25T05:13:26.171Z,29.98
2022-12-25T05:15:53.796Z,22.65
2022-12-25T05:18:21.457Z,29.23
2022-12-25T05:20:53.585Z,23.13
2022-12-25T05:23:21.377Z,23.13
2022-12-25T05:25:48.122Z,22.58
2022-12-25T05:28:14.975Z,21.88
2022-12-25T05:30:41.775Z,21.05
2022-12-25T05:33:08.560Z,18.63
2022-12-25T05:38:05.030Z,27.45
2022-12-25T05:40:33.944Z,24.80
2022-12-25T05:43:00.943Z,22.42
2022-12-25T05:45:27.790Z,22.10
2022-12-25T05:47:54.595Z,20.52
2022-12-25T05:50:21.383Z,23.77
2022-12-25T05:52:48.234Z,23.20
2022-12-25T05:55:15.164Z,26.52
2022-12-25T05:57:41.989Z,20.38
2022-12-25T06:00:09.674Z,35.65
2022-12-25T06:02:39.509Z,21.40
2022-12-25T06:05:06.944Z,23.17
2022-12-25T06:07:33.772Z,22.38
2022-12-25T06:10:01.240Z,21.15
2022-12-25T06:12:28.303Z,23.38
2022-12-25T06:14:55.107Z,27.88
2022-12-25T06:17:24.535Z,23.05
2022-12-25T06:19:51.306Z,22.10
2022-12-25T06:22:18.125Z,18.63
2022-12-25T06:24:45.107Z,16.63
2022-12-25T06:27:12.011Z,27.05
2022-12-25T06:29:38.867Z,29.95
2022-12-25T06:32:05.669Z,27.85
2022-12-25T06:34:32.506Z,22.58
2022-12-25T06:36:59.259Z,21.88
2022-12-25T06:39:26.188Z,47.30
2022-12-25T06:41:52.959Z,25.40
2022-12-25T06:44:19.704Z,25.63
2022-12-25T06:46:46.523Z,30.15
2022-12-25T06:49:13.323Z,45.30
2022-12-25T06:51:40.121Z,26.80
2022-12-25T06:54:06.944Z,18.38
2022-12-25T06:56:34.533Z,17.92
2022-12-25T06:59:07.283Z,30.27
2022-12-25T07:01:48.210Z,25.52
2022-12-25T07:04:40.394Z,16.70
2022-12-25T07:07:09.430Z,20.35
2022-12-25T07:09:38.707Z,19.70
2022-12-25T07:12:20.588Z,20.80
2022-12-25T07:14:50.717Z,22.90
2022-12-25T07:17:18.709Z,19.27
2022-12-25T07:22:16.624Z,23.27
2022-12-25T07:24:43.572Z,19.55
2022-12-25T07:27:10.862Z,26.92
2022-12-25T07:29:37.807Z,28.58
2022-12-25T07:32:05.023Z,26.40
2022-12-25T07:34:31.932Z,34.53
2022-12-25T07:36:58.760Z,51.95
2022-12-25T07:39:25.584Z,51.22
2022-12-25T07:41:52.338Z,29.90
2022-12-25T07:44:19.242Z,56.05
2022-12-25T07:46:46.203Z,34.25
2022-12-25T07:49:13.157Z,66.43
2022-12-25T07:51:40.127Z,68.63
2022-12-25T07:54:06.957Z,67.63
2022-12-25T07:56:33.982Z,53.75
2022-12-25T07:59:00.823Z,42.47
2022-12-25T08:01:28.398Z,52.60
2022-12-25T08:03:57.953Z,69.63
2022-12-25T08:06:30.884Z,42.58
2022-12-25T08:09:02.760Z,73.00
2022-12-25T08:11:29.584Z,47.13
2022-12-25T08:13:56.494Z,69.38
2022-12-25T08:16:23.431Z,68.88
2022-12-25T08:18:50.427Z,93.80
2022-12-25T08:21:17.259Z,78.22
2022-12-25T08:23:46.601Z,38.13
2022-12-25T08:26:16.419Z,67.47
2022-12-25T08:28:43.570Z,74.47
2022-12-25T08:31:25.110Z,85.93
2022-12-25T08:33:54.119Z,76.95
2022-12-25T09:01:50.089Z,45.92
2022-12-25T09:04:17.076Z,35.03
2022-12-25T09:06:44.121Z,43.92
2022-12-25T09:09:11.058Z,26.80
2022-12-25T09:11:37.891Z,53.85
2022-12-25T09:14:04.850Z,21.00
2022-12-25T09:16:31.818Z,25.48
2022-12-25T09:18:58.856Z,49.75
2022-12-25T09:21:25.781Z,36.22
2022-12-25T09:23:52.697Z,36.72
2022-12-25T09:26:19.833Z,34.50
2022-12-25T09:28:51.906Z,52.78
2022-12-25T09:31:20.989Z,45.35
2022-12-25T09:33:49.225Z,52.20
2022-12-25T09:38:43.249Z,33.45
2022-12-25T09:41:22.142Z,39.83
2022-12-25T09:44:13.369Z,48.35
2022-12-25T09:46:45.527Z,36.58
2022-12-25T09:49:27.265Z,38.75
2022-12-25T09:52:03.031Z,30.52
2022-12-25T09:54:37.697Z,25.60
2022-12-25T09:57:05.429Z,23.83
2022-12-25T09:59:32.274Z,23.52
2022-12-25T10:02:19.528Z,29.90
2022-12-25T10:05:05.417Z,23.75
2022-12-25T10:07:52.908Z,28.23
2022-12-25T10:10:39.726Z,26.42
2022-12-25T10:13:30.336Z,33.50
2022-12-25T10:16:12.048Z,25.02
2022-12-25T10:18:57.784Z,22.70
2022-12-25T10:21:25.440Z,25.20
2022-12-25T10:24:18.004Z,21.02
2022-12-25T10:26:45.181Z,21.45
2022-12-25T10:29:19.257Z,20.13
2022-12-25T10:31:48.617Z,28.35
2022-12-25T10:34:16.353Z,24.20
2022-12-25T10:36:45.733Z,23.60
2022-12-25T10:39:26.106Z,23.88
2022-12-25T10:42:14.636Z,24.60
2022-12-25T10:44:41.445Z,19.40
2022-12-25T10:47:08.557Z,21.83
2022-12-25T10:49:38.844Z,17.98
2022-12-25T10:52:23.719Z,17.58
2022-12-25T10:54:50.679Z,16.90
2022-12-25T10:57:21.602Z,17.95
2022-12-25T10:59:56.047Z,19.95
2022-12-25T11:02:39.289Z,18.35
2022-12-25T11:05:10.092Z,20.48
2022-12-25T11:07:51.125Z,21.27
2022-12-25T11:10:25.574Z,18.10
2022-12-25T11:12:53.776Z,18.40
2022-12-25T11:18:21.394Z,17.30
2022-12-25T11:21:05.010Z,16.08
2022-12-25T11:23:33.041Z,16.10
2022-12-25T11:26:05.730Z,19.45
2022-12-25T11:28:35.644Z,17.75
2022-12-25T11:31:42.993Z,16.73
2022-12-25T11:34:20.631Z,16.45
2022-12-25T11:36:49.918Z,18.60
2022-12-25T11:39:25.497Z,23.65
2022-12-25T11:42:14.510Z,17.40
2022-12-25T11:44:49.577Z,21.42
2022-12-25T11:47:59.381Z,20.20
2022-12-25T11:50:40.928Z,19.90
2022-12-25T11:53:23.726Z,24.85
2022-12-25T11:55:57.188Z,28.15
2022-12-25T11:59:04.368Z,25.60
2022-12-25T12:01:45.307Z,24.00
2022-12-25T12:04:29.624Z,23.83
2022-12-25T12:07:18.727Z,21.02
2022-12-25T12:10:01.389Z,21.65
2022-12-25T12:12:53.638Z,23.13
2022-12-25T12:15:42.310Z,18.15
2022-12-25T12:18:19.621Z,23.05
2022-12-25T12:21:08.390Z,20.67
2022-12-25T12:23:48.796Z,21.65
2022-12-25T12:26:20.721Z,19.77
2022-12-25T12:28:49.469Z,20.55
2022-12-25T12:31:17.029Z,23.48
2022-12-25T12:33:56.359Z,21.67
2022-12-25T12:36:36.189Z,17.60
2022-12-25T12:39:06.430Z,16.83
2022-12-25T12:41:50.909Z,22.05
2022-12-25T12:44:23.286Z,20.27
2022-12-25T12:46:58.330Z,16.75
2022-12-25T12:49:33.036Z,19.40
2022-12-25T12:52:32.382Z,14.95
2022-12-25T12:55:15.050Z,21.45
2022-12-25T12:57:42.798Z,18.30
2022-12-25T13:00:16.764Z,19.25
2022-12-25T13:03:09.146Z,20.40
2022-12-25T13:05:57.864Z,19.35
2022-12-25T13:08:43.490Z,20.38
2022-12-25T13:11:29.245Z,18.25
2022-12-25T13:14:00.657Z,23.23
2022-12-25T13:16:36.935Z,20.23
2022-12-25T13:19:12.381Z,19.58
2022-12-25T13:21:39.424Z,20.27
2022-12-25T13:24:18.303Z,18.85
2022-12-25T13:26:45.102Z,20.67
2022-12-25T13:29:35.608Z,19.10
2022-12-25T13:32:05.400Z,17.52
2022-12-25T13:34:41.928Z,20.00
2022-12-25T13:37:14.205Z,21.58
2022-12-25T13:39:59.763Z,18.95
2022-12-25T13:42:32.113Z,20.77
2022-12-25T13:45:01.403Z,17.83
2022-12-25T13:47:35.067Z,21.70
2022-12-25T13:50:30.136Z,20.13
2022-12-25T13:53:11.113Z,19.33
2022-12-25T13:55:38.225Z,23.25
2022-12-25T13:58:07.493Z,22.88
2022-12-25T14:00:53.070Z,24.17
2022-12-25T14:03:35.286Z,20.33
2022-12-25T14:06:24.070Z,20.05
2022-12-25T14:08:52.460Z,22.40
2022-12-25T14:11:22.544Z,20.33
2022-12-25T14:13:52.573Z,20.23
2022-12-25T14:16:21.058Z,20.23
2022-12-25T14:18:59.077Z,21.42
2022-12-25T14:24:16.269Z,17.67
2022-12-25T14:29:17.601Z,21.63
2022-12-25T14:31:46.812Z,21.10
2022-12-25T14:34:20.481Z,19.58
2022-12-25T14:36:50.292Z,18.17
2022-12-25T14:39:34.784Z,20.80
2022-12-25T14:42:12.322Z,18.33
2022-12-25T14:44:40.548Z,21.75
2022-12-25T14:47:19.365Z,18.00
2022-12-25T14:49:47.250Z,20.77
2022-12-25T14:52:23.391Z,16.65
2022-12-25T14:54:58.150Z,16.73
2022-12-25T14:57:40.500Z,25.40
2022-12-25T15:00:26.958Z,18.83
2022-12-25T15:02:56.612Z,17.65
2022-12-25T15:05:24.841Z,18.52
2022-12-25T15:08:11.017Z,17.50
2022-12-25T15:16:02.173Z,18.55
2022-12-25T15:18:34.129Z,18.05
2022-12-25T15:21:00.910Z,15.43
2022-12-25T15:23:27.815Z,19.38
2022-12-25T15:25:54.772Z,20.20
2022-12-25T15:28:21.564Z,13.65
2022-12-25T15:30:49.844Z,15.40
2022-12-25T15:33:18.673Z,13.20
2022-12-25T15:35:45.630Z,12.35
2022-12-25T15:38:13.207Z,15.43
2022-12-25T15:40:40.938Z,14.25
2022-12-25T15:43:20.861Z,14.52
2022-12-25T15:45:56.239Z,35.97
2022-12-25T15:48:23.090Z,16.70
2022-12-25T15:50:50.180Z,29.40
2022-12-25T15:53:16.914Z,18.65
2022-12-25T15:55:43.748Z,14.95
2022-12-25T15:58:12.967Z,18.60
2022-12-25T16:00:39.842Z,22.83
2022-12-25T16:03:06.804Z,19.95
2022-12-25T16:05:33.680Z,22.15
2022-12-25T16:08:00.475Z,24.85
2022-12-25T16:10:36.580Z,26.02
2022-12-25T16:13:05.407Z,29.52
2022-12-25T16:15:32.343Z,27.70
2022-12-25T16:17:59.241Z,31.20
2022-12-25T16:20:25.980Z,28.95
2022-12-25T16:22:52.885Z,28.33
2022-12-25T16:25:20.100Z,29.23
2022-12-25T16:27:47.198Z,26.05
2022-12-25T16:30:16.230Z,31.98
2022-12-25T16:32:44.296Z,32.17
2022-12-25T16:35:12.034Z,36.65
2022-12-25T16:37:41.979Z,35.45
2022-12-25T16:40:12.545Z,39.33
2022-12-25T16:42:39.516Z,27.70
2022-12-25T16:45:06.800Z,34.72
2022-12-25T16:47:34.485Z,34.50
2022-12-25T16:50:03.675Z,35.25
2022-12-25T16:52:34.556Z,32.97
2022-12-25T16:55:02.501Z,36.53
2022-12-25T16:57:31.553Z,28.80
2022-12-25T16:59:59.036Z,39.60
2022-12-25T17:02:26.159Z,38.25
2022-12-25T17:04:53.133Z,35.92
2022-12-25T17:07:19.975Z,37.25
2022-12-25T17:09:48.090Z,30.38
2022-12-25T17:12:15.572Z,33.92
2022-12-25T17:14:42.711Z,34.25
2022-12-25T17:17:09.462Z,33.47
2022-12-25T17:19:36.904Z,30.90
2022-12-25T17:22:03.875Z,31.77
2022-12-25T17:24:30.799Z,38.25
2022-12-25T17:26:57.564Z,30.38
2022-12-25T17:29:25.156Z,39.08
2022-12-25T17:31:52.482Z,55.47
2022-12-25T17:34:19.572Z,38.92
2022-12-25T17:36:46.730Z,45.38
2022-12-25T17:39:13.612Z,55.95
2022-12-25T17:41:40.412Z,45.67
2022-12-25T17:44:07.167Z,37.53
2022-12-25T17:46:34.016Z,39.10
2022-12-25T17:49:01.812Z,33.90
2022-12-25T17:51:30.805Z,38.28
2022-12-25T17:54:02.964Z,32.95
2022-12-25T17:56:30.384Z,32.88
2022-12-25T17:58:59.263Z,43.03
2022-12-25T18:01:28.645Z,36.88
2022-12-25T18:03:55.997Z,49.95
2022-12-25T18:06:24.416Z,41.57
2022-12-25T18:08:51.459Z,45.00
2022-12-25T18:11:20.883Z,51.40
2022-12-25T18:13:51.795Z,33.47
2022-12-25T18:16:21.992Z,40.03
2022-12-25T18:18:52.216Z,35.22
2022-12-25T18:21:20.951Z,41.47
2022-12-25T18:26:15.467Z,41.15
2022-12-25T18:28:44.201Z,37.30
2022-12-25T18:31:15.124Z,34.00
2022-12-25T18:33:42.835Z,36.97
2022-12-25T18:36:12.526Z,35.75
2022-12-25T18:38:39.514Z,30.90
2022-12-25T18:41:08.195Z,35.78
2022-12-25T18:43:53.664Z,36.78
2022-12-25T18:46:25.066Z,38.33
2022-12-25T18:49:06.000Z,28.77
2022-12-25T18:51:36.785Z,36.25
2022-12-25T18:54:06.970Z,35.35
2022-12-25T18:56:36.310Z,33.63
2022-12-25T18:59:03.531Z,41.47
2022-12-25T19:01:32.919Z,34.37
2022-12-25T19:04:06.182Z,39.33
2022-12-25T19:06:33.636Z,39.33
2022-12-25T19:09:09.804Z,37.92
2022-12-25T19:11:45.961Z,37.40
2022-12-25T19:14:13.269Z,38.53
2022-12-25T19:16:40.583Z,32.67
2022-12-25T19:19:07.541Z,46.63
2022-12-25T19:21:35.468Z,43.53
2022-12-25T19:24:02.378Z,38.33
2022-12-25T19:26:29.267Z,36.55
2022-12-25T19:28:56.169Z,39.83
2022-12-25T19:31:32.445Z,42.65
2022-12-25T19:33:59.406Z,37.38
2022-12-25T19:36:26.407Z,41.30
2022-12-25T19:38:53.855Z,39.00
2022-12-25T19:41:20.951Z,41.10
2022-12-25T19:43:49.304Z,44.38
2022-12-25T19:46:25.773Z,36.92
2022-12-25T19:48:55.405Z,32.00
2022-12-25T19:51:25.157Z,39.53
2022-12-25T19:53:58.568Z,40.72
2022-12-25T19:56:27.141Z,38.08
2022-12-25T19:58:54.077Z,35.80
2022-12-25T20:01:23.213Z,42.95
2022-12-25T20:03:50.537Z,36.60
2022-12-25T20:06:24.773Z,37.20
2022-12-25T20:09:13.469Z,41.53
2022-12-25T20:11:41.038Z,36.60
2022-12-25T20:14:08.641Z,33.00
2022-12-25T20:16:39.800Z,31.25
2022-12-25T20:19:07.532Z,31.98
2022-12-25T20:21:34.427Z,30.70
2022-12-25T20:24:01.399Z,28.70
2022-12-25T20:26:30.616Z,30.65
2022-12-25T20:28:58.833Z,31.08
2022-12-25T20:33:58.593Z,31.05
2022-12-25T20:36:28.521Z,29.05
2022-12-25T20:38:59.629Z,29.58
2022-12-25T20:41:28.411Z,32.67
2022-12-25T20:43:57.624Z,31.98
2022-12-25T20:46:25.519Z,33.97
2022-12-25T20:48:53.137Z,31.55
2022-12-25T20:51:25.255Z,33.75
2022-12-25T20:53:52.852Z,35.15
2022-12-25T20:56:23.174Z,39.40
2022-12-25T20:58:58.177Z,32.80
2022-12-25T21:01:26.615Z,32.08
2022-12-25T21:03:53.889Z,32.50
2022-12-25T21:06:21.567Z,35.92
2022-12-25T21:08:48.744Z,38.00
2022-12-25T21:11:16.850Z,38.28
2022-12-25T21:13:46.016Z,34.28
2022-12-25T21:16:19.962Z,34.42
2022-12-25T21:18:48.306Z,31.38
2022-12-25T21:21:16.058Z,34.92
2022-12-25T21:23:43.239Z,33.08
2022-12-25T21:26:11.580Z,31.60
2022-12-25T21:28:38.692Z,33.33
2022-12-25T21:31:06.793Z,30.95
2022-12-25T21:33:53.232Z,33.58
2022-12-25T21:36:29.916Z,36.10
2022-12-25T21:39:02.411Z,35.00
2022-12-25T21:41:31.132Z,36.63
2022-12-25T21:43:58.236Z,30.23
2022-12-25T21:46:25.407Z,27.75
2022-12-25T21:48:52.840Z,29.50
2022-12-25T21:51:43.913Z,31.03
2022-12-25T21:54:14.849Z,30.88
2022-12-25T21:56:45.203Z,29.88
2022-12-25T21:59:20.723Z,34.88
2022-12-25T22:01:48.784Z,28.38
2022-12-25T22:07:05.197Z,32.80
2022-12-25T22:09:32.515Z,30.33
2022-12-25T22:12:18.374Z,32.37
2022-12-25T22:14:54.794Z,30.77
2022-12-25T22:17:54.571Z,29.48
2022-12-25T22:20:27.646Z,28.35
2022-12-25T22:22:54.707Z,27.48
2022-12-25T22:25:22.482Z,28.42
2022-12-25T22:27:50.559Z,28.08
2022-12-25T22:30:23.195Z,28.00
2022-12-25T22:32:50.476Z,26.23
2022-12-25T22:35:18.228Z,27.60
2022-12-25T22:37:45.373Z,25.65
2022-12-25T22:40:15.123Z,27.50
2022-12-25T22:42:42.471Z,23.88
2022-12-25T22:45:10.960Z,25.20
2022-12-25T22:47:38.087Z,26.02
2022-12-25T22:50:05.507Z,25.85
2022-12-25T22:52:32.484Z,30.08
2022-12-25T22:54:59.423Z,23.85
2022-12-25T22:57:26.583Z,24.70
2022-12-25T22:59:53.633Z,22.15
2022-12-25T23:02:21.078Z,21.10
2022-12-25T23:04:48.399Z,23.95
2022-12-25T23:07:15.698Z,25.27
2022-12-25T23:09:43.919Z,27.77
2022-12-25T23:14:57.619Z,27.73
2022-12-25T23:17:43.942Z,22.13
2022-12-25T23:20:35.302Z,17.45
2022-12-25T23:27:08.669Z,22.02
2022-12-25T23:29:36.842Z,19.48
2022-12-25T23:32:08.820Z,22.30
2022-12-25T23:34:38.530Z,24.98
2022-12-25T23:37:06.225Z,20.23
2022-12-25T23:39:33.312Z,21.58
2022-12-25T23:42:00.513Z,19.25
2022-12-25T23:44:28.021Z,16.85
2022-12-25T23:46:54.930Z,18.10
2022-12-25T23:49:23.803Z,20.20
2022-12-25T23:51:51.142Z,20.27
2022-12-25T23:54:20.900Z,17.23
2022-12-25T23:56:48.183Z,18.70
2022-12-25T23:59:15.632Z,18.08
